Time;durP1;ratioP1;P1;durP2;ratioP2;P2;SDS_P1;SDS_P2;PMS_P1;PMS_P2;Temp;Humidity;BMP_temperature;BMP_pressure;BME280_temperature;BME280_humidity;BME280_pressure;Samples;Min_cycle;Max_cycle;Signal;HPM_P1;HPM_P2
2022/03/06 00:00:33;;;;;;;18.05;11.20;;;;;;;-1.34;100.00;101493.75;6108805;29;20036;-90
2022/03/06 00:03:35;;;;;;;17.40;10.55;;;;;;;-1.29;100.00;101497.06;6118669;29;20044;-89
2022/03/06 00:06:39;;;;;;;17.08;11.25;;;;;;;-1.23;100.00;101507.13;6109960;29;20044;-90
2022/03/06 00:09:42;;;;;;;17.40;11.07;;;;;;;-1.18;100.00;101514.66;6132342;29;20056;-89
2022/03/06 00:12:46;;;;;;;17.88;11.52;;;;;;;-1.11;100.00;101512.03;6112002;29;20154;-89
2022/03/06 00:15:49;;;;;;;19.45;11.57;;;;;;;-1.02;100.00;101517.81;6111331;29;20047;-89
2022/03/06 00:18:51;;;;;;;19.45;11.25;;;;;;;-0.98;100.00;101515.22;6124778;29;20103;-90
2022/03/06 00:22:09;;;;;;;14.27;10.38;;;;;;;-0.87;100.00;101517.56;6147045;28;20030;-90
2022/03/06 00:25:12;;;;;;;19.38;11.57;;;;;;;-0.82;100.00;101512.44;6109314;29;20051;-90
2022/03/06 00:28:14;;;;;;;16.67;10.68;;;;;;;-0.78;100.00;101519.16;6119705;29;20047;-90
2022/03/06 00:31:17;;;;;;;19.42;10.98;;;;;;;-0.84;100.00;101509.94;6134401;29;20055;-89
2022/03/06 00:34:20;;;;;;;21.02;12.25;;;;;;;-0.87;100.00;101509.94;6128177;29;20446;-90
2022/03/06 00:37:28;;;;;;;48.30;18.58;;;;;;;-0.87;100.00;101520.13;6123237;29;20588;-89
2022/03/06 00:40:31;;;;;;;33.28;15.35;;;;;;;-0.80;100.00;101515.78;6132537;29;20075;-89
2022/03/06 00:43:33;;;;;;;39.05;17.33;;;;;;;-0.74;100.00;101515.72;6124087;29;20035;-90
2022/03/06 00:46:36;;;;;;;19.58;11.63;;;;;;;-0.68;100.00;101518.13;6129244;29;20047;-90
2022/03/06 00:49:38;;;;;;;18.65;10.93;;;;;;;-0.71;100.00;101515.66;6128552;29;20032;-89
2022/03/06 00:52:41;;;;;;;18.02;11.70;;;;;;;-0.73;100.00;101527.53;6124850;29;20051;-90
2022/03/06 00:55:43;;;;;;;18.30;11.40;;;;;;;-0.74;100.00;101525.88;6128941;29;20056;-89
2022/03/06 00:58:45;;;;;;;20.52;10.90;;;;;;;-0.74;100.00;101531.78;6112811;29;20043;-90
2022/03/06 01:01:48;;;;;;;19.17;11.50;;;;;;;-0.73;100.00;101527.53;6122534;29;20075;-89
2022/03/06 01:04:51;;;;;;;19.48;11.23;;;;;;;-0.71;100.00;101534.28;6129093;29;20178;-89
2022/03/06 01:07:53;;;;;;;18.08;11.05;;;;;;;-0.73;100.00;101542.78;6123344;29;20044;-89
2022/03/06 01:10:56;;;;;;;21.08;12.02;;;;;;;-0.73;100.00;101536.00;6116302;29;20039;-89
2022/03/06 01:13:59;;;;;;;21.10;11.50;;;;;;;-0.70;100.00;101537.66;6136898;28;20067;-89
2022/03/06 01:17:02;;;;;;;18.25;10.77;;;;;;;-0.69;100.00;101539.34;6133725;29;20067;-90
2022/03/06 01:20:06;;;;;;;17.35;10.98;;;;;;;-0.69;100.00;101541.91;6120714;29;20044;-90
2022/03/06 01:23:09;;;;;;;23.45;12.40;;;;;;;-0.72;100.00;101547.88;6116166;29;20043;-90
2022/03/06 01:26:11;;;;;;;18.40;11.65;;;;;;;-0.72;100.00;101549.53;6125581;29;20508;-90
2022/03/06 01:29:14;;;;;;;20.27;12.00;;;;;;;-0.72;100.00;101549.53;6107247;29;20054;-90
2022/03/06 01:32:16;;;;;;;21.27;12.50;;;;;;;-0.73;100.00;101553.78;6111051;29;20055;-89
2022/03/06 01:35:20;;;;;;;18.92;12.13;;;;;;;-0.79;100.00;101548.81;6136121;29;20050;-90
2022/03/06 01:38:23;;;;;;;18.05;11.63;;;;;;;-0.77;100.00;101551.31;6131502;29;20051;-90
2022/03/06 01:41:26;;;;;;;20.75;12.32;;;;;;;-0.79;100.00;101553.06;6115998;29;20044;-90
2022/03/06 01:44:30;;;;;;;17.77;11.95;;;;;;;-0.85;100.00;101543.81;6122119;29;20088;-90
2022/03/06 01:47:49;;;;;;;18.52;10.68;;;;;;;-0.81;100.00;101548.00;6124838;29;20041;-90
2022/03/06 01:50:52;;;;;;;18.25;10.90;;;;;;;-0.77;100.00;101548.78;6114799;29;20043;-90
2022/03/06 01:53:55;;;;;;;17.02;10.20;;;;;;;-0.76;100.00;101546.22;6117525;29;20043;-90
2022/03/06 01:56:58;;;;;;;14.95;10.32;;;;;;;-0.76;100.00;101553.84;6131193;29;20075;-90
2022/03/06 02:00:06;;;;;;;18.52;10.60;;;;;;;-0.75;100.00;101552.97;6140297;29;20065;-90
2022/03/06 02:03:14;;;;;;;18.00;11.00;;;;;;;-0.67;100.00;101558.81;6119718;29;20047;-90
2022/03/06 02:06:19;;;;;;;15.35;9.77;;;;;;;-0.62;100.00;101551.09;6122594;29;20051;-90
2022/03/06 02:09:35;;;;;;;14.98;10.20;;;;;;;-0.54;100.00;101543.34;6114071;29;20119;-90
2022/03/06 02:12:37;;;;;;;19.50;10.55;;;;;;;-0.49;100.00;101549.19;6110248;29;20464;-90
2022/03/06 02:15:41;;;;;;;15.93;10.50;;;;;;;-0.44;100.00;101545.69;6121982;29;20120;-90
2022/03/06 02:18:43;;;;;;;17.83;10.55;;;;;;;-0.43;100.00;101538.91;6131326;29;20087;-89
2022/03/06 02:21:49;;;;;;;17.23;10.70;;;;;;;-0.45;100.00;101538.94;6107230;29;20043;-90
2022/03/06 02:24:52;;;;;;;18.02;10.57;;;;;;;-0.44;100.00;101534.69;6113665;29;20051;-90
2022/03/06 02:27:57;;;;;;;16.10;10.68;;;;;;;-0.40;100.00;101538.84;6123919;29;20068;-90
2022/03/06 02:31:00;;;;;;;17.00;10.30;;;;;;;-0.41;100.00;101532.09;6118293;29;20047;-90
2022/03/06 02:34:04;;;;;;;17.95;11.65;;;;;;;-0.43;100.00;101537.19;6131394;29;20804;-90
2022/03/06 02:37:08;;;;;;;21.10;12.13;;;;;;;-0.50;100.00;101538.19;6113135;29;20036;-90
2022/03/06 02:40:18;;;;;;;21.00;11.85;;;;;;;-0.50;100.00;101535.66;6116247;29;20574;-89
2022/03/06 02:43:21;;;;;;;18.65;10.93;;;;;;;-0.55;100.00;101534.84;6098558;29;20047;-89
2022/03/06 02:46:24;;;;;;;19.05;10.95;;;;;;;-0.55;100.00;101531.47;6107869;29;20489;-90
2022/03/06 02:49:26;;;;;;;16.70;10.45;;;;;;;-0.54;100.00;101534.00;6133628;29;20054;-89
2022/03/06 02:52:29;;;;;;;19.02;10.90;;;;;;;-0.55;100.00;101527.22;6138771;29;20059;-90
2022/03/06 02:55:32;;;;;;;22.83;11.52;;;;;;;-0.54;100.00;101528.94;6123807;29;20044;-90
2022/03/06 02:58:34;;;;;;;18.67;11.65;;;;;;;-0.53;100.00;101527.22;6079213;29;20115;-90
2022/03/06 03:01:41;;;;;;;18.08;10.65;;;;;;;-0.51;100.00;101520.41;6119890;29;20044;-90
2022/03/06 03:04:43;;;;;;;18.42;12.00;;;;;;;-0.48;100.00;101527.97;6127954;29;20036;-90
2022/03/06 03:07:48;;;;;;;19.08;11.40;;;;;;;-0.48;100.00;101526.25;6131819;29;20118;-90
2022/03/06 03:10:50;;;;;;;17.52;11.20;;;;;;;-0.45;100.00;101522.81;6129058;29;20040;-90
2022/03/06 03:13:53;;;;;;;18.25;11.25;;;;;;;-0.46;100.00;101526.25;6129564;29;20142;-90
2022/03/06 03:16:55;;;;;;;18.10;11.23;;;;;;;-0.45;100.00;101522.81;6122365;29;20177;-90
2022/03/06 03:19:58;;;;;;;16.88;10.65;;;;;;;-0.42;100.00;101527.88;6123430;29;20059;-90
2022/03/06 03:23:00;;;;;;;16.88;10.52;;;;;;;-0.43;100.00;101518.56;6107205;29;20118;-90
2022/03/06 03:26:03;;;;;;;15.93;10.57;;;;;;;-0.43;100.00;101521.09;6124196;29;20072;-90
2022/03/06 03:29:05;;;;;;;19.48;11.63;;;;;;;-0.46;100.00;101521.16;6102882;29;20052;-90
2022/03/06 03:32:07;;;;;;;16.38;10.77;;;;;;;-0.46;100.00;101529.63;6142215;29;20039;-89
2022/03/06 03:35:10;;;;;;;14.85;10.77;;;;;;;-0.48;100.00;101528.81;6105908;29;20175;-90
2022/03/06 03:38:13;;;;;;;16.33;11.15;;;;;;;-0.48;100.00;101527.97;6124562;29;20063;-90
2022/03/06 03:41:16;;;;;;;15.77;10.80;;;;;;;-0.50;100.00;101530.56;6109716;29;20058;-90
2022/03/06 03:44:18;;;;;;;16.55;10.45;;;;;;;-0.49;100.00;101531.41;6109159;29;20051;-90
2022/03/06 03:47:21;;;;;;;19.48;10.70;;;;;;;-0.45;100.00;101530.47;6123283;29;20047;-90
2022/03/06 03:50:24;;;;;;;18.77;11.35;;;;;;;-0.46;100.00;101532.16;6128024;29;20047;-89
2022/03/06 03:53:29;;;;;;;16.83;10.75;;;;;;;-0.46;100.00;101538.97;6122808;29;20075;-90
2022/03/06 03:56:31;;;;;;;16.80;11.20;;;;;;;-0.48;100.00;101536.44;6117465;29;20050;-90
2022/03/06 03:59:33;;;;;;;17.60;10.95;;;;;;;-0.49;100.00;101539.03;6116475;29;20055;-90
2022/03/06 04:02:49;;;;;;;16.58;10.38;;;;;;;-0.48;100.00;101543.22;6099126;29;20131;-90
2022/03/06 04:05:53;;;;;;;14.85;10.27;;;;;;;-0.45;100.00;101543.19;6122318;29;20564;-90
2022/03/06 04:08:55;;;;;;;15.93;10.40;;;;;;;-0.41;100.00;101542.28;6127386;29;20042;-90
2022/03/06 04:11:58;;;;;;;19.63;11.25;;;;;;;-0.42;100.00;101543.16;6107823;29;20040;-89
2022/03/06 04:15:00;;;;;;;17.10;10.75;;;;;;;-0.44;100.00;101540.63;6126951;29;20051;-90
2022/03/06 04:18:03;;;;;;;18.40;10.90;;;;;;;-0.45;100.00;101540.63;6124097;29;20040;-90
2022/03/06 04:21:05;;;;;;;19.02;11.85;;;;;;;-0.47;100.00;101540.69;6116297;29;20107;-89
2022/03/06 04:24:08;;;;;;;18.10;11.73;;;;;;;-0.47;100.00;101543.22;6128479;29;20766;-89
2022/03/06 04:27:10;;;;;;;19.20;11.50;;;;;;;-0.47;100.00;101545.75;6123471;29;20070;-90
2022/03/06 04:30:14;;;;;;;19.50;10.95;;;;;;;-0.46;100.00;101552.50;6126395;29;20043;-89
2022/03/06 04:33:17;;;;;;;17.33;9.93;;;;;;;-0.48;100.00;101549.16;6092070;29;20191;-89
2022/03/06 04:36:19;;;;;;;15.20;9.90;;;;;;;-0.48;100.00;101553.41;6104516;29;20048;-90
2022/03/06 04:39:21;;;;;;;14.85;8.85;;;;;;;-0.49;100.00;101546.66;6113133;29;20131;-89
2022/03/06 04:42:23;;;;;;;10.85;6.75;;;;;;;-0.37;100.00;101553.22;6124145;29;20843;-90
2022/03/06 04:45:26;;;;;;;11.90;7.00;;;;;;;-0.36;100.00;101565.09;6121815;29;20135;-90
2022/03/06 04:48:29;;;;;;;11.60;7.05;;;;;;;-0.30;100.00;101562.44;6106080;29;20543;-89
2022/03/06 04:51:31;;;;;;;10.43;6.25;;;;;;;-0.27;100.00;101570.03;6108839;29;20162;-90
2022/03/06 04:54:34;;;;;;;12.20;7.15;;;;;;;-0.24;100.00;101569.97;6130580;29;20054;-90
2022/03/06 04:57:37;;;;;;;9.82;6.28;;;;;;;-0.18;100.00;101572.38;6105244;29;20393;-89
2022/03/06 05:00:39;;;;;;;8.93;6.30;;;;;;;-0.17;100.00;101563.91;6112248;29;20036;-89
2022/03/06 05:03:42;;;;;;;8.70;5.88;;;;;;;-0.16;100.00;101565.56;6107748;29;20059;-90
2022/03/06 05:06:45;;;;;;;10.20;5.97;;;;;;;-0.15;100.00;101568.94;6125847;29;20040;-90
2022/03/06 05:09:47;;;;;;;8.75;5.50;;;;;;;-0.12;100.00;101571.47;6127915;29;20243;-90
2022/03/06 05:12:50;;;;;;;10.25;4.88;;;;;;;-0.12;100.00;101574.00;6132145;29;20055;-90
2022/03/06 05:15:53;;;;;;;7.25;5.18;;;;;;;-0.10;100.00;101569.72;6121597;29;20048;-90
2022/03/06 05:18:56;;;;;;;7.80;5.57;;;;;;;-0.05;100.00;101573.00;6096666;29;20512;-89
2022/03/06 05:21:58;;;;;;;6.95;4.90;;;;;;;-0.07;100.00;101573.06;6097243;29;20070;-89
2022/03/06 05:25:02;;;;;;;7.57;4.93;;;;;;;-0.09;100.00;101569.69;6127534;29;20070;-90
2022/03/06 05:28:05;;;;;;;9.18;5.03;;;;;;;-0.09;100.00;101571.41;6128912;29;20051;-90
2022/03/06 05:31:10;;;;;;;6.20;5.03;;;;;;;-0.10;100.00;101572.25;6136013;29;20513;-89
2022/03/06 05:34:13;;;;;;;7.45;5.32;;;;;;;-0.11;100.00;101573.97;6118719;29;20131;-89
2022/03/06 05:37:16;;;;;;;6.68;4.90;;;;;;;-0.08;100.00;101571.34;6100676;29;20047;-90
2022/03/06 05:40:19;;;;;;;10.30;5.63;;;;;;;-0.06;100.00;101579.81;6104716;29;20697;-90
2022/03/06 05:43:22;;;;;;;8.93;5.47;;;;;;;-0.03;100.00;101579.75;6122473;29;20498;-90
2022/03/06 05:46:24;;;;;;;9.40;5.95;;;;;;;-0.06;100.00;101576.44;6121514;29;20409;-89
2022/03/06 05:49:27;;;;;;;8.18;5.10;;;;;;;-0.08;100.00;101581.53;6093089;29;20051;-89
2022/03/06 05:52:30;;;;;;;8.40;4.78;;;;;;;-0.09;100.00;101586.69;6128357;29;20175;-90
2022/03/06 05:55:34;;;;;;;6.68;4.80;;;;;;;-0.09;100.00;101597.69;6112739;29;20188;-90
2022/03/06 05:58:37;;;;;;;9.18;4.90;;;;;;;-0.09;100.00;101591.75;6105364;29;20054;-89
2022/03/06 06:01:39;;;;;;;9.57;5.13;;;;;;;-0.07;100.00;101598.50;6126926;29;20048;-90
2022/03/06 06:04:42;;;;;;;7.10;4.47;;;;;;;-0.08;100.00;101601.91;6135972;29;20499;-90
2022/03/06 06:07:45;;;;;;;6.05;4.93;;;;;;;-0.08;100.00;101603.59;6125588;29;20067;-90
2022/03/06 06:10:47;;;;;;;8.27;5.30;;;;;;;-0.09;100.00;101607.88;6125543;29;20052;-90
2022/03/06 06:13:49;;;;;;;10.55;5.05;;;;;;;-0.05;100.00;101609.50;6124580;29;20047;-89
2022/03/06 06:16:52;;;;;;;8.60;5.40;;;;;;;0.03;100.00;101609.38;6114401;29;20067;-89
2022/03/06 06:19:54;;;;;;;5.88;4.93;;;;;;;0.03;100.00;101611.06;6128018;29;20048;-90
2022/03/06 06:22:56;;;;;;;6.30;4.90;;;;;;;0.04;100.00;101612.75;6115417;29;20056;-89
2022/03/06 06:25:59;;;;;;;6.90;5.00;;;;;;;0.08;100.00;101611.84;6111271;29;20485;-89
2022/03/06 06:29:02;;;;;;;9.45;5.50;;;;;;;0.07;100.00;101610.97;6125829;29;20043;-89
2022/03/06 06:32:05;;;;;;;5.13;4.63;;;;;;;0.11;100.00;101617.69;6127956;29;20044;-90
2022/03/06 06:35:08;;;;;;;6.88;5.03;;;;;;;0.16;100.00;101621.00;6120748;29;20055;-89
2022/03/06 06:38:10;;;;;;;7.50;4.93;;;;;;;0.17;100.00;101622.69;6121155;29;20099;-90
2022/03/06 06:41:12;;;;;;;9.13;5.55;;;;;;;0.19;100.00;101628.56;6120208;29;20467;-89
2022/03/06 06:44:16;;;;;;;9.25;4.85;;;;;;;0.24;100.00;101620.84;6105502;29;20521;-89
2022/03/06 06:47:19;;;;;;;8.38;5.10;;;;;;;0.26;100.00;101623.38;6116613;29;20040;-89
2022/03/06 06:50:22;;;;;;;7.18;4.70;;;;;;;0.37;100.00;101629.09;6134451;29;20513;-89
2022/03/06 06:53:24;;;;;;;7.18;5.15;;;;;;;0.39;100.00;101635.00;6121565;29;20044;-89
2022/03/06 06:56:27;;;;;;;10.23;5.18;;;;;;;0.45;100.00;101642.56;6119401;29;20063;-89
2022/03/06 06:59:30;;;;;;;9.82;5.30;;;;;;;0.49;100.00;101631.41;6134274;29;20046;-90
2022/03/06 07:02:32;;;;;;;7.15;5.00;;;;;;;0.55;100.00;101636.41;6120797;29;20186;-90
2022/03/06 07:05:37;;;;;;;11.18;6.30;;;;;;;0.60;100.00;101629.50;6141380;29;20043;-89
2022/03/06 07:08:39;;;;;;;13.00;7.00;;;;;;;0.68;100.00;101642.09;6133931;29;20050;-89
2022/03/06 07:11:41;;;;;;;9.20;6.20;;;;;;;0.75;100.00;101633.47;6128081;29;20044;-90
2022/03/06 07:14:50;;;;;;;6.25;4.90;;;;;;;0.85;100.00;101644.31;6132304;29;20047;-90
2022/03/06 07:17:55;;;;;;;6.30;4.45;;;;;;;0.95;100.00;101643.25;6125519;29;20111;-90
2022/03/06 07:20:57;;;;;;;9.13;4.80;;;;;;;1.03;100.00;101645.63;6111447;29;20171;-89
2022/03/06 07:24:00;;;;;;;7.60;4.70;;;;;;;1.09;100.00;101648.03;6131135;29;20043;-90
2022/03/06 07:27:03;;;;;;;6.10;4.60;;;;;;;1.14;100.00;101656.44;6109367;29;20222;-90
2022/03/06 07:30:06;;;;;;;9.23;6.70;;;;;;;1.23;100.00;101660.50;6126099;29;20672;-90
2022/03/06 07:33:09;;;;;;;12.38;7.07;;;;;;;1.31;100.00;101660.34;6134252;29;20039;-90
2022/03/06 07:36:12;;;;;;;7.88;5.10;;;;;;;1.40;100.00;101668.63;6134823;29;20058;-90
2022/03/06 07:39:15;;;;;;;7.03;4.47;;;;;;;1.48;100.00;101669.28;6119508;29;20072;-90
2022/03/06 07:42:31;;;;;;;8.32;5.05;;;;;;;1.59;100.00;101673.28;6134974;29;20077;-90
2022/03/06 07:45:34;;;;;;;6.35;4.90;;;;;;;1.70;100.00;101676.44;6148808;29;20051;-90
2022/03/06 07:48:36;;;;;;;9.55;6.07;;;;;;;1.81;100.00;101679.56;6123084;29;20039;-90
2022/03/06 07:51:41;;;;;;;7.50;5.35;;;;;;;1.85;100.00;101677.81;6142148;29;20044;-90
2022/03/06 07:54:45;;;;;;;6.95;5.07;;;;;;;1.92;100.00;101690.38;6129462;29;20075;-90
2022/03/06 07:57:57;;;;;;;10.88;5.07;;;;;;;1.97;100.00;101695.38;2423984;23;24629;-89
2022/03/06 08:01:07;;;;;;;7.03;5.17;;;;;;;1.99;100.00;101698.75;6099645;29;20044;-90
2022/03/06 08:04:17;;;;;;;9.15;5.30;;;;;;;2.01;100.00;101701.22;6102684;29;20055;-90
2022/03/06 08:07:23;;;;;;;9.45;5.53;;;;;;;2.11;100.00;101701.00;6107809;29;20052;-90
2022/03/06 08:10:29;;;;;;;7.97;5.53;;;;;;;2.19;100.00;101700.81;6119949;29;20028;-89
2022/03/06 08:13:33;;;;;;;6.78;5.07;;;;;;;2.28;100.00;101698.00;6122553;29;20359;-90
2022/03/06 08:16:41;;;;;;;7.78;6.03;;;;;;;2.35;100.00;101694.41;6105954;29;20050;-89
2022/03/06 08:19:46;;;;;;;12.60;6.57;;;;;;;2.44;100.00;101708.66;6115773;29;20059;-90
2022/03/06 08:22:49;;;;;;;8.63;6.00;;;;;;;2.55;100.00;101704.09;6096026;29;20040;-90
2022/03/06 08:25:52;;;;;;;6.72;5.03;;;;;;;2.67;100.00;101705.50;6100066;29;20498;-90
2022/03/06 08:29:04;;;;;;;6.47;4.70;;;;;;;2.70;100.00;101702.84;6225553;23;20053;-89
2022/03/06 08:32:15;;;;;;;7.47;5.03;;;;;;;2.86;100.00;101712.66;6111136;29;20052;-90
2022/03/06 08:38:53;;;;;;;7.05;5.05;;;;;;;2.92;100.00;101723.56;7066755;23;20034;31
2022/03/06 09:01:56;;;;;;;7.25;4.75;;;;;;;3.32;95.60;101732.66;5834316;23;20027;31
2022/03/06 09:05:25;;;;;;;5.95;4.93;;;;;;;3.37;94.50;101724.84;3428434;23;20225;-90
2022/03/06 11:43:48;;;;;;;6.97;4.47;;;;;;;4.80;61.68;101726.19;3735137;23;20043;-94
2022/03/06 11:46:55;;;;;;;6.18;4.60;;;;;;;4.62;63.15;101724.25;6123346;29;20117;-93
2022/03/06 11:49:59;;;;;;;9.68;5.53;;;;;;;4.71;62.97;101721.38;6108308;29;20032;-93
2022/03/06 11:53:19;;;;;;;8.80;4.57;;;;;;;4.69;58.13;101723.97;6110880;29;20040;-94
2022/03/06 11:56:37;;;;;;;6.25;4.68;;;;;;;4.47;59.95;101716.22;6094851;29;20879;-93
2022/03/06 11:59:44;;;;;;;8.23;4.90;;;;;;;4.44;58.31;101715.47;6097019;29;20051;-92
2022/03/06 12:02:49;;;;;;;9.90;5.35;;;;;;;4.42;59.46;101712.97;6102204;29;20138;-93
2022/03/06 12:05:56;;;;;;;7.35;4.90;;;;;;;4.50;59.30;101708.41;6115872;29;20036;-90
2022/03/06 12:08:58;;;;;;;5.93;4.18;;;;;;;4.58;59.64;101707.31;6114011;29;20044;-93
2022/03/06 12:12:04;;;;;;;8.23;4.53;;;;;;;4.47;59.78;101705.97;6100965;29;20055;-92
2022/03/06 12:15:27;;;;;;;9.50;5.00;;;;;;;4.36;58.29;101709.78;6105568;29;20048;-93
2022/03/06 12:18:30;;;;;;;10.23;6.43;;;;;;;4.26;56.17;101711.81;6086005;29;20056;-92
2022/03/06 12:21:41;;;;;;;5.43;4.32;;;;;;;4.09;54.08;101714.91;6108534;29;20070;-93
2022/03/06 12:24:43;;;;;;;;;;;;;;;3.94;55.41;101716.25;6108283;29;20125;-92
2022/03/06 12:28:01;;;;;;;7.93;4.90;;;;;;;4.05;56.90;101713.34;6108378;29;19922;-92
2022/03/06 12:31:36;;;;;;;7.50;4.97;;;;;;;4.26;57.67;101711.81;6107570;29;20048;-92
2022/03/06 12:34:41;;;;;;;6.65;4.38;;;;;;;4.45;55.68;101712.03;6106827;29;20051;-93
2022/03/06 12:37:49;;;;;;;8.30;4.70;;;;;;;4.59;55.24;101696.97;6104058;29;20325;-92
2022/03/06 12:40:52;;;;;;;6.45;4.30;;;;;;;4.62;54.43;101703.72;6110082;29;20048;-92
2022/03/06 12:44:07;;;;;;;6.32;3.85;;;;;;;4.71;53.68;101708.53;6103175;29;20120;-92
2022/03/06 12:47:10;;;;;;;5.75;3.38;;;;;;;4.77;53.40;101699.78;6112019;29;20047;-92
2022/03/06 12:50:19;;;;;;;5.15;3.53;;;;;;;4.71;52.55;101699.13;6118034;29;20036;-92
2022/03/06 12:53:22;;;;;;;5.78;4.10;;;;;;;4.76;52.76;101696.41;6107996;29;20413;-92
2022/03/06 12:56:38;;;;;;;6.20;3.42;;;;;;;4.96;52.11;101698.25;6113077;29;20076;-93
2022/03/06 12:59:43;;;;;;;5.65;4.03;;;;;;;5.18;53.21;101690.59;6104274;29;20649;-92
2022/03/06 13:03:05;;;;;;;5.90;3.30;;;;;;;5.58;51.89;101689.06;6100692;29;20629;-92
2022/03/06 13:06:17;;;;;;;5.72;3.80;;;;;;;5.64;51.54;101690.53;6111522;29;20051;-92
2022/03/06 13:09:27;;;;;;;5.60;3.72;;;;;;;5.50;52.44;101679.09;6122836;29;20543;-92
2022/03/06 13:12:44;;;;;;;6.70;3.25;;;;;;;5.40;52.21;101675.19;6117697;29;20076;-92
2022/03/06 13:15:50;;;;;;;5.45;3.70;;;;;;;5.10;54.08;101669.50;6120814;29;20260;-92
2022/03/06 13:19:16;;;;;;;5.07;3.40;;;;;;;5.11;55.09;101671.19;6117216;29;20051;-93
2022/03/06 13:22:20;;;;;;;5.68;3.40;;;;;;;5.22;54.40;101676.75;6117095;29;20679;-93
2022/03/06 13:25:32;;;;;;;4.25;3.45;;;;;;;5.49;54.76;101663.72;6111493;29;20606;-92
2022/03/06 13:28:35;;;;;;;4.80;3.65;;;;;;;5.69;53.58;101665.50;6099317;29;20273;-93
2022/03/06 13:31:47;;;;;;;5.85;3.45;;;;;;;5.55;53.99;101672.03;6120203;29;20040;-93
2022/03/06 13:34:49;;;;;;;6.95;3.42;;;;;;;5.29;53.50;101667.94;6113708;29;20075;-92
2022/03/06 13:38:21;;;;;;;4.32;3.45;;;;;;;5.00;56.68;101663.06;6111303;29;20040;-92
2022/03/06 13:41:25;;;;;;;3.58;3.05;;;;;;;4.97;57.27;101664.84;6122438;29;20048;-92
2022/03/06 13:44:28;;;;;;;3.33;2.97;;;;;;;4.94;55.92;101669.22;6092559;29;20040;-92
2022/03/06 13:47:41;;;;;;;4.80;3.20;;;;;;;4.91;55.75;101662.47;6104968;29;20180;-92
2022/03/06 13:50:47;;;;;;;5.55;3.65;;;;;;;4.75;56.97;101662.22;6114771;29;20075;-92
2022/03/06 13:54:01;;;;;;;6.22;4.22;;;;;;;4.62;58.15;101661.00;6113000;29;20052;-92
2022/03/06 13:57:05;;;;;;;5.15;3.78;;;;;;;4.60;60.81;101662.78;6110299;29;20301;-92
2022/03/06 14:00:29;;;;;;;5.93;4.10;;;;;;;4.68;60.63;101658.19;6105010;29;20362;-92
2022/03/06 14:03:34;;;;;;;5.50;3.30;;;;;;;4.92;59.50;101660.78;6107153;29;20044;-92
2022/03/06 14:06:50;;;;;;;6.32;4.20;;;;;;;5.52;58.41;101654.19;6117518;29;20046;-92
2022/03/06 14:09:55;;;;;;;6.57;4.07;;;;;;;5.81;57.70;101653.03;6119212;29;20040;-92
2022/03/06 14:13:01;;;;;;;7.15;4.38;;;;;;;5.86;58.93;101662.25;6120609;29;20043;-92
2022/03/06 14:16:09;;;;;;;7.05;4.82;;;;;;;5.71;58.40;101651.69;6133892;29;20163;-92
2022/03/06 14:19:21;;;;;;;6.22;4.30;;;;;;;5.61;59.36;101660.66;6113788;29;20048;-92
2022/03/06 14:22:27;;;;;;;5.85;3.15;;;;;;;5.68;56.33;101661.28;6111515;29;20040;-92
2022/03/06 14:25:30;;;;;;;5.88;4.47;;;;;;;5.51;58.19;101647.34;6107768;29;20046;-92
2022/03/06 14:28:47;;;;;;;4.63;3.67;;;;;;;5.32;58.12;101647.25;6116460;29;20146;-92
2022/03/06 14:32:12;;;;;;;5.28;3.55;;;;;;;5.14;58.23;101646.25;6097934;29;20048;-92
2022/03/06 14:35:14;;;;;;;5.50;3.20;;;;;;;5.10;59.55;101644.69;6105827;29;20051;-92
2022/03/06 14:38:16;;;;;;;5.78;2.95;;;;;;;4.96;57.40;101644.34;6107541;29;20091;-92
2022/03/06 14:41:22;;;;;;;5.35;3.05;;;;;;;4.83;57.34;101645.72;6106112;29;20099;-92
2022/03/06 14:44:24;;;;;;;5.18;3.55;;;;;;;4.73;57.21;101648.63;6108805;29;20059;-92
2022/03/06 14:47:28;;;;;;;4.32;2.90;;;;;;;4.63;59.91;101649.00;6104228;29;20044;-92
2022/03/06 14:50:30;;;;;;;4.45;3.30;;;;;;;4.60;59.77;101644.84;6101326;29;20043;-92
2022/03/06 14:53:35;;;;;;;3.92;3.10;;;;;;;4.64;59.62;101645.53;6107838;29;20036;-92
2022/03/06 14:56:39;;;;;;;5.13;3.33;;;;;;;4.56;59.87;101647.56;6106427;29;20068;-92
2022/03/06 14:59:41;;;;;;;5.55;3.30;;;;;;;4.53;59.09;101656.19;6114326;29;20077;-92
2022/03/06 15:02:43;;;;;;;4.30;3.10;;;;;;;4.42;59.62;101643.75;6114790;29;20421;-91
2022/03/06 15:05:48;;;;;;;4.15;3.53;;;;;;;4.46;58.52;101650.44;6102604;29;20485;-91
2022/03/06 15:09:09;;;;;;;;;;;;;;;4.38;58.95;101639.63;6110392;29;20127;-91
2022/03/06 15:12:18;;;;;;;5.03;3.50;;;;;;;4.31;61.65;101645.84;6087591;29;19931;-91
2022/03/06 15:15:20;;;;;;;4.75;3.22;;;;;;;4.39;59.07;101648.97;6109116;29;20043;-92
2022/03/06 15:18:34;;;;;;;5.25;3.80;;;;;;;4.36;59.09;101643.97;6109500;29;20127;-92
2022/03/06 15:21:38;;;;;;;9.87;5.43;;;;;;;4.31;60.62;101641.56;6115897;29;20884;-92
2022/03/06 15:24:40;;;;;;;4.95;3.00;;;;;;;4.19;60.50;101643.72;6098929;29;20036;-92
2022/03/06 15:27:47;;;;;;;5.40;3.45;;;;;;;3.90;64.04;101648.09;6120600;29;20048;-91
2022/03/06 15:30:49;;;;;;;5.15;3.75;;;;;;;3.61;66.54;101651.59;6093666;29;20083;-91
2022/03/06 15:33:56;;;;;;;5.03;3.22;;;;;;;3.38;63.62;101647.19;6110200;29;20512;-91
2022/03/06 15:36:58;;;;;;;4.72;2.92;;;;;;;3.19;64.81;101644.38;6105858;29;20115;-91
2022/03/06 15:40:12;;;;;;;4.88;3.45;;;;;;;3.28;65.30;101641.53;6108381;29;20044;-91
2022/03/06 15:43:15;;;;;;;4.95;3.33;;;;;;;3.56;63.99;101638.09;6112450;29;21603;-92
2022/03/06 15:46:18;;;;;;;6.32;3.65;;;;;;;3.82;62.63;101639.81;6107998;29;20040;-91
2022/03/06 15:49:20;;;;;;;5.13;3.28;;;;;;;4.21;63.45;101637.63;6118069;29;20422;-92
2022/03/06 15:52:24;;;;;;;4.32;3.47;;;;;;;4.43;59.83;101632.59;6106800;29;20544;-91
2022/03/06 15:55:26;;;;;;;4.28;3.33;;;;;;;4.44;60.68;101628.31;6117864;29;20707;-92
2022/03/06 15:58:30;;;;;;;5.93;3.63;;;;;;;4.49;60.54;101626.41;6112969;29;20146;-92
2022/03/06 16:01:35;;;;;;;6.97;3.75;;;;;;;4.47;57.94;101628.19;6117012;29;20048;-92
2022/03/06 16:04:37;;;;;;;5.55;4.20;;;;;;;4.21;60.58;101639.38;6113794;29;20058;-92
2022/03/06 16:07:43;;;;;;;4.55;3.63;;;;;;;4.00;63.79;101633.22;6110819;29;20036;-92
2022/03/06 16:10:45;;;;;;;5.13;3.67;;;;;;;3.80;61.57;101633.91;6108253;29;20048;-92
2022/03/06 16:13:54;;;;;;;7.15;4.28;;;;;;;3.65;64.61;101633.53;6122358;29;20118;-92
2022/03/06 16:17:06;;;;;;;6.30;4.05;;;;;;;3.55;62.87;101636.41;6101849;29;20166;-92
2022/03/06 16:20:08;;;;;;;7.07;4.30;;;;;;;3.42;62.88;101633.41;6101550;29;20055;-92
2022/03/06 16:23:11;;;;;;;7.38;4.30;;;;;;;3.23;67.58;101628.03;6123906;29;20520;-92
2022/03/06 16:26:27;;;;;;;8.93;4.78;;;;;;;3.02;70.65;101632.91;6113276;29;20414;-92
2022/03/06 16:29:32;;;;;;;7.47;4.47;;;;;;;2.86;74.73;101634.25;6107608;29;20768;-92
2022/03/06 16:32:35;;;;;;;7.15;5.25;;;;;;;2.71;75.22;101630.41;6100484;29;20037;-92
2022/03/06 16:35:37;;;;;;;6.88;4.80;;;;;;;2.61;80.84;101633.25;6110425;29;20051;-92
2022/03/06 16:38:55;;;;;;;6.35;4.93;;;;;;;2.50;85.08;101629.28;6114985;29;20044;-92
2022/03/06 16:42:03;;;;;;;7.65;5.50;;;;;;;2.41;85.25;101631.25;6105755;29;20054;-91
2022/03/06 16:45:07;;;;;;;8.80;5.22;;;;;;;2.27;86.97;101632.47;6116224;29;20058;-91
2022/03/06 16:48:09;;;;;;;6.70;4.97;;;;;;;2.06;88.00;101626.22;6118601;29;20036;-91
2022/03/06 16:51:12;;;;;;;5.95;4.43;;;;;;;1.90;89.99;101630.03;6114279;29;20052;-92
2022/03/06 16:54:15;;;;;;;5.32;4.10;;;;;;;1.77;97.99;101632.03;6105732;29;20148;-92
2022/03/06 16:57:19;;;;;;;7.68;5.18;;;;;;;1.64;100.00;101636.59;6098969;29;20807;-92
2022/03/06 17:00:21;;;;;;;10.25;5.13;;;;;;;1.46;100.00;101637.03;6115290;29;20040;-92
2022/03/06 17:03:29;;;;;;;6.32;4.60;;;;;;;1.22;100.00;101638.44;6088895;29;20208;-91
2022/03/06 17:06:33;;;;;;;7.22;4.47;;;;;;;1.10;100.00;101643.81;6099087;29;20036;-92
2022/03/06 17:09:35;;;;;;;5.57;4.47;;;;;;;0.99;100.00;101636.34;6104652;29;20551;-91
2022/03/06 17:12:38;;;;;;;6.45;4.45;;;;;;;0.80;100.00;101638.47;6099078;29;20055;-91